Time;durP1;ratioP1;P1;durP2;ratioP2;P2;SDS_P1;SDS_P2;PMS_P1;PMS_P2;Temp;Humidity;BMP_temperature;BMP_pressure;BME280_temperature;BME280_humidity;BME280_pressure;Samples;Min_cycle;Max_cycle;Signal;HPM_P1;HPM_P2
2021/12/18 00:01:27;;;;;;;33.13;28.15;;;13.10;90.50;;;;;;5095621;28;20020;-65
2021/12/18 00:03:53;;;;;;;32.65;29.20;;;13.10;90.60;;;;;;5095974;28;20032;-68
2021/12/18 00:06:19;;;;;;;33.00;29.67;;;13.10;90.60;;;;;;5095265;28;20029;-68
2021/12/18 00:08:45;;;;;;;34.60;30.90;;;13.10;90.60;;;;;;5095291;28;20024;-67
2021/12/18 00:11:11;;;;;;;33.45;29.98;;;13.10;90.60;;;;;;5082447;28;20035;-67
2021/12/18 00:13:37;;;;;;;34.03;30.23;;;13.00;90.70;;;;;;5076307;28;20401;-67
2021/12/18 00:16:03;;;;;;;33.28;29.48;;;13.10;90.70;;;;;;5095041;28;20485;-65
2021/12/18 00:18:30;;;;;;;31.80;28.52;;;13.20;90.70;;;;;;5094898;28;20081;-68
2021/12/18 00:20:58;;;;;;;30.55;27.38;;;13.20;90.60;;;;;;5095883;28;20048;-68
2021/12/18 00:23:24;;;;;;;31.33;27.83;;;13.20;90.60;;;;;;5095380;28;20089;-65
2021/12/18 00:25:49;;;;;;;33.78;30.38;;;13.10;90.70;;;;;;5094665;28;20039;-66
2021/12/18 00:28:15;;;;;;;34.78;31.10;;;13.10;90.70;;;;;;5094715;28;20020;-66
2021/12/18 00:30:40;;;;;;;33.97;30.48;;;13.10;90.80;;;;;;5087369;28;20036;-66
2021/12/18 00:33:06;;;;;;;32.97;29.40;;;13.00;90.80;;;;;;5073214;28;20020;-66
2021/12/18 00:35:33;;;;;;;34.83;31.05;;;13.00;90.90;;;;;;5074797;28;20017;-66
2021/12/18 00:38:00;;;;;;;32.95;29.45;;;13.00;90.80;;;;;;5072908;28;20097;-66
2021/12/18 00:40:30;;;;;;;33.03;29.42;;;13.00;91.00;;;;;;5074591;28;20024;-66
2021/12/18 00:42:58;;;;;;;31.90;28.50;;;13.00;91.00;;;;;;5074857;28;20426;-66
2021/12/18 00:45:24;;;;;;;31.42;28.25;;;13.00;91.00;;;;;;5074906;28;20141;-66
2021/12/18 00:47:50;;;;;;;31.67;28.38;;;13.10;90.90;;;;;;5074834;28;20478;-66
2021/12/18 00:50:19;;;;;;;31.30;28.10;;;13.20;90.80;;;;;;5075120;28;20020;-66
2021/12/18 00:52:47;;;;;;;30.85;27.75;;;13.10;90.80;;;;;;5074411;28;20107;-66
2021/12/18 00:55:14;;;;;;;30.08;27.02;;;13.00;90.90;;;;;;5075015;28;20071;-66
2021/12/18 00:57:40;;;;;;;28.85;25.85;;;13.10;90.90;;;;;;5074492;28;20037;-66
2021/12/18 01:00:09;;;;;;;30.50;27.40;;;13.10;91.00;;;;;;5075055;28;20484;-66
2021/12/18 01:02:37;;;;;;;28.55;25.75;;;13.10;91.00;;;;;;5074611;28;20017;-67
2021/12/18 01:05:05;;;;;;;28.92;26.08;;;13.10;91.00;;;;;;5074995;28;20032;-66
2021/12/18 01:07:31;;;;;;;29.27;26.35;;;13.10;91.00;;;;;;5074025;28;20016;-66
2021/12/18 01:10:16;;;;;;;27.75;24.30;;;13.10;90.90;;;;;;5074750;28;20032;-66
2021/12/18 01:12:45;;;;;;;30.88;27.77;;;13.10;90.90;;;;;;5074035;28;20098;-66
2021/12/18 01:15:24;;;;;;;32.33;28.95;;;13.20;90.90;;;;;;5074680;28;20108;-66
2021/12/18 01:23:21;;;;;;;31.42;28.17;;;13.00;91.00;;;;;;5074581;28;20066;-66
2021/12/18 01:25:47;;;;;;;30.20;27.10;;;13.00;91.20;;;;;;5074385;28;20024;-66
2021/12/18 01:28:13;;;;;;;31.27;28.15;;;13.00;91.20;;;;;;5073523;28;20143;-66
2021/12/18 01:30:38;;;;;;;30.08;27.02;;;13.00;91.20;;;;;;5074338;28;20466;-66
2021/12/18 01:33:04;;;;;;;30.42;27.23;;;13.00;91.30;;;;;;5074046;28;20047;-66
2021/12/18 01:35:30;;;;;;;29.20;26.23;;;13.00;91.30;;;;;;5073923;28;20074;-65
2021/12/18 01:37:57;;;;;;;29.90;26.80;;;13.00;91.30;;;;;;5073873;28;20028;-66
2021/12/18 01:40:24;;;;;;;30.35;27.13;;;12.90;91.30;;;;;;5073965;28;20458;-66
2021/12/18 01:53:23;;;;;;;30.55;27.35;;;13.00;91.30;;;;;;5073826;28;20504;-66
2021/12/18 01:55:51;;;;;;;33.58;30.02;;;13.00;91.30;;;;;;5073462;28;20032;-67
2021/12/18 01:58:23;;;;;;;33.95;30.25;;;13.00;91.30;;;;;;5072295;28;20441;-67
2021/12/18 02:00:51;;;;;;;32.08;28.67;;;13.00;91.40;;;;;;5073637;28;20021;-66
2021/12/18 02:03:16;;;;;;;32.95;29.63;;;12.90;91.50;;;;;;5071926;28;20028;-66
2021/12/18 02:05:42;;;;;;;32.72;29.23;;;13.10;91.40;;;;;;5073488;28;20044;-65
2021/12/18 02:08:08;;;;;;;32.63;29.23;;;13.00;91.40;;;;;;5073496;28;20390;-67
2021/12/18 02:10:52;;;;;;;33.70;30.10;;;13.10;91.40;;;;;;5073387;28;20490;-66
2021/12/18 02:13:36;;;;;;;31.52;28.27;;;13.00;91.40;;;;;;5073239;28;20082;-66
2021/12/18 02:21:31;;;;;;;32.25;28.83;;;13.10;91.40;;;;;;5073363;28;20489;-68
2021/12/18 02:23:57;;;;;;;32.15;28.58;;;13.10;91.40;;;;;;5073113;28;20500;-67
2021/12/18 02:26:23;;;;;;;33.30;29.70;;;13.10;91.40;;;;;;5073258;28;20095;-66
2021/12/18 02:28:52;;;;;;;32.00;28.25;;;13.10;91.40;;;;;;5073121;28;20028;-66
2021/12/18 02:31:18;;;;;;;33.15;29.27;;;13.00;91.60;;;;;;5073023;28;20021;-66
2021/12/18 02:33:45;;;;;;;32.10;28.60;;;13.00;91.60;;;;;;5072738;28;20093;-64
2021/12/18 02:36:12;;;;;;;32.80;29.25;;;13.00;91.60;;;;;;5072988;28;20013;-67
2021/12/18 02:44:00;;;;;;;31.30;27.83;;;13.00;91.60;;;;;;5073016;28;20045;-66
2021/12/18 02:46:26;;;;;;;33.05;28.98;;;12.90;91.70;;;;;;5073049;28;20017;-66
2021/12/18 02:48:53;;;;;;;33.42;29.15;;;12.90;91.70;;;;;;5072694;28;20040;-67
2021/12/18 02:51:20;;;;;;;33.38;29.17;;;13.00;91.70;;;;;;5072919;28;20101;-66
2021/12/18 02:53:48;;;;;;;31.15;27.85;;;12.90;91.70;;;;;;5073060;28;20013;-67
2021/12/18 02:56:15;;;;;;;32.72;29.10;;;12.90;91.70;;;;;;5072890;28;20047;-66
2021/12/18 02:58:43;;;;;;;32.17;28.73;;;13.00;91.70;;;;;;5073219;28;20424;-65
2021/12/18 03:01:11;;;;;;;31.40;27.92;;;13.00;91.70;;;;;;5072562;28;20422;-65
2021/12/18 03:03:40;;;;;;;34.88;29.08;;;12.90;91.70;;;;;;5072928;28;20021;-67
2021/12/18 03:08:54;;;;;;;31.52;28.13;;;12.90;91.80;;;;;;5072916;28;20307;-65
2021/12/18 03:25:31;;;;;;;33.13;26.27;;;13.00;91.70;;;;;;5072852;28;20040;-66
2021/12/18 03:27:36;;;;;;;31.42;26.83;;;13.00;91.80;;;;;;5066934;28;20066;-67
2021/12/18 03:30:04;;;;;;;29.98;26.45;;;13.00;91.80;;;;;;5072582;28;20032;-67
2021/12/18 03:32:30;;;;;;;29.63;26.13;;;12.90;91.80;;;;;;5072273;28;20025;-65
2021/12/18 03:34:55;;;;;;;29.75;26.42;;;13.00;91.90;;;;;;5072556;28;20025;-67
2021/12/18 03:37:22;;;;;;;27.98;24.98;;;12.90;91.70;;;;;;5072598;28;20505;-65
2021/12/18 03:39:48;;;;;;;28.73;24.90;;;12.90;91.80;;;;;;5071397;28;20430;-66
2021/12/18 03:42:14;;;;;;;32.38;27.02;;;12.90;91.80;;;;;;5072197;28;20032;-66
2021/12/18 03:44:40;;;;;;;27.75;24.52;;;12.90;91.90;;;;;;5072243;28;20109;-66
2021/12/18 03:47:06;;;;;;;27.67;23.75;;;12.90;91.90;;;;;;5072315;28;20053;-66
2021/12/18 03:49:33;;;;;;;29.80;25.20;;;12.90;91.90;;;;;;5072532;28;20028;-67
2021/12/18 03:51:59;;;;;;;27.77;24.35;;;13.00;91.80;;;;;;5073755;28;20027;-66
2021/12/18 03:54:24;;;;;;;26.92;23.02;;;13.00;92.10;;;;;;5075993;28;20103;-66
2021/12/18 03:56:50;;;;;;;26.65;23.58;;;13.00;91.70;;;;;;5075830;28;20077;-66
2021/12/18 03:59:16;;;;;;;27.85;24.55;;;13.00;91.60;;;;;;5075773;28;20024;-66
2021/12/18 04:01:42;;;;;;;34.95;28.77;;;12.90;91.70;;;;;;5082160;28;20373;-66
2021/12/18 04:04:08;;;;;;;37.58;29.27;;;12.80;91.80;;;;;;5079152;28;20483;-66
2021/12/18 04:06:37;;;;;;;36.80;28.85;;;12.90;91.80;;;;;;5075599;28;20025;-66
2021/12/18 04:09:03;;;;;;;33.25;26.63;;;12.90;91.80;;;;;;5075643;28;20089;-67
2021/12/18 04:11:28;;;;;;;29.88;25.48;;;13.00;91.70;;;;;;5075259;28;20482;-66
2021/12/18 04:13:54;;;;;;;30.67;25.25;;;12.90;91.80;;;;;;5075343;28;20032;-66
2021/12/18 04:16:21;;;;;;;30.48;25.27;;;12.90;91.80;;;;;;5075300;28;20025;-67
2021/12/18 04:18:48;;;;;;;30.58;24.80;;;13.00;91.70;;;;;;5075769;28;20358;-66
2021/12/18 04:21:13;;;;;;;33.92;25.60;;;12.90;91.80;;;;;;5075260;28;20028;-66
2021/12/18 04:23:39;;;;;;;30.10;25.35;;;12.80;91.90;;;;;;5075443;28;20028;-66
2021/12/18 04:26:05;;;;;;;32.72;25.23;;;12.80;92.00;;;;;;5075038;28;20025;-66
2021/12/18 04:28:31;;;;;;;31.05;24.58;;;12.80;92.10;;;;;;5075232;28;20243;-66
2021/12/18 04:30:56;;;;;;;27.88;23.25;;;12.80;92.00;;;;;;5075227;28;20473;-67
2021/12/18 04:33:22;;;;;;;25.75;22.88;;;12.80;92.00;;;;;;5075275;28;20022;-67
2021/12/18 04:35:48;;;;;;;27.48;23.50;;;12.80;92.00;;;;;;5075196;28;20024;-65
2021/12/18 04:38:13;;;;;;;30.50;23.92;;;12.80;92.10;;;;;;5074907;28;20138;-66
2021/12/18 04:40:41;;;;;;;31.25;25.77;;;12.80;92.10;;;;;;5075138;28;20112;-66
2021/12/18 04:43:06;;;;;;;29.17;23.65;;;12.80;92.20;;;;;;5074911;28;20032;-66
2021/12/18 04:45:32;;;;;;;27.20;21.63;;;12.70;92.30;;;;;;5075136;28;20025;-66
2021/12/18 04:47:58;;;;;;;26.05;21.65;;;12.70;92.30;;;;;;5074829;28;20060;-66
2021/12/18 04:50:24;;;;;;;24.63;21.25;;;12.80;92.20;;;;;;5074790;28;20122;-65
2021/12/18 04:52:50;;;;;;;25.88;20.63;;;12.90;92.10;;;;;;5074872;28;20111;-66
2021/12/18 04:55:16;;;;;;;25.77;20.77;;;12.90;92.10;;;;;;5074997;28;20124;-67
2021/12/18 04:57:42;;;;;;;23.45;20.33;;;12.80;92.20;;;;;;5074574;28;20032;-66
2021/12/18 05:00:11;;;;;;;26.15;20.52;;;12.70;92.40;;;;;;5074749;28;20073;-66
2021/12/18 05:02:40;;;;;;;24.00;20.52;;;12.60;92.50;;;;;;5073612;28;20115;-67
2021/12/18 05:05:08;;;;;;;26.27;21.08;;;12.60;92.50;;;;;;5074653;28;20025;-67
2021/12/18 05:07:33;;;;;;;25.02;21.00;;;12.70;92.50;;;;;;5074492;28;20027;-65
2021/12/18 05:10:00;;;;;;;25.17;21.48;;;12.70;92.60;;;;;;5074758;28;20013;-65
2021/12/18 05:12:26;;;;;;;25.33;21.10;;;12.70;92.60;;;;;;5073974;28;20134;-65
2021/12/18 05:14:52;;;;;;;24.70;19.67;;;12.60;92.70;;;;;;5073308;28;20509;-67
2021/12/18 05:17:17;;;;;;;24.58;20.77;;;12.70;92.70;;;;;;5074410;28;20490;-67
2021/12/18 05:19:43;;;;;;;24.70;20.45;;;12.70;92.60;;;;;;5074334;28;20450;-67
2021/12/18 05:22:09;;;;;;;28.02;22.25;;;12.60;92.60;;;;;;5074307;28;20036;-67
2021/12/18 05:24:34;;;;;;;27.02;21.67;;;12.60;92.80;;;;;;5074337;28;20016;-66
2021/12/18 05:27:00;;;;;;;25.35;21.00;;;12.60;92.70;;;;;;5074138;28;20047;-67
2021/12/18 05:29:26;;;;;;;28.02;22.52;;;12.60;92.80;;;;;;5074165;28;20077;-66
2021/12/18 05:31:52;;;;;;;27.63;22.15;;;12.70;92.80;;;;;;5074253;28;20056;-67
2021/12/18 05:34:23;;;;;;;27.58;21.65;;;12.60;92.90;;;;;;5074011;28;20073;-67
2021/12/18 05:39:24;;;;;;;26.15;22.00;;;12.70;92.80;;;;;;5074183;28;20082;-67
2021/12/18 05:41:51;;;;;;;27.95;23.63;;;12.70;92.80;;;;;;5073765;28;20073;-67
2021/12/18 05:44:18;;;;;;;25.83;20.77;;;12.70;92.80;;;;;;5073847;28;20082;-67
2021/12/18 05:46:44;;;;;;;27.20;21.35;;;12.60;92.70;;;;;;5074049;28;20101;-66
2021/12/18 05:49:11;;;;;;;27.10;22.23;;;12.70;92.80;;;;;;5073538;28;20036;-66
2021/12/18 05:51:37;;;;;;;26.70;22.08;;;12.70;92.80;;;;;;5073825;28;20449;-67
2021/12/18 05:54:03;;;;;;;28.05;21.58;;;12.70;92.70;;;;;;5073801;28;20485;-66
2021/12/18 05:56:29;;;;;;;26.33;20.98;;;12.60;92.70;;;;;;5073357;28;20051;-67
2021/12/18 05:58:55;;;;;;;28.10;22.08;;;12.60;92.80;;;;;;5073711;28;20462;-68
2021/12/18 06:01:21;;;;;;;26.00;21.13;;;12.60;92.80;;;;;;5074826;28;20088;-67
2021/12/18 06:03:47;;;;;;;26.85;21.85;;;12.70;92.80;;;;;;5072240;28;20103;-67
2021/12/18 06:06:13;;;;;;;25.80;22.05;;;12.70;92.80;;;;;;5072270;28;20111;-66
2021/12/18 06:08:42;;;;;;;29.95;24.40;;;12.70;92.80;;;;;;5072132;28;20409;-66
2021/12/18 06:11:13;;;;;;;39.92;31.02;;;12.60;92.90;;;;;;5073453;28;20390;-67
2021/12/18 06:13:39;;;;;;;40.58;30.63;;;12.60;93.00;;;;;;5072922;28;20021;-67
2021/12/18 06:16:07;;;;;;;38.72;29.05;;;12.50;93.10;;;;;;5073301;28;20033;-66
2021/12/18 06:18:35;;;;;;;38.47;29.25;;;12.60;93.00;;;;;;5073180;28;20034;-67
2021/12/18 06:21:01;;;;;;;35.65;27.15;;;12.60;93.00;;;;;;5073351;28;20052;-66
2021/12/18 06:23:27;;;;;;;41.30;29.48;;;12.60;92.90;;;;;;5072086;28;20021;-67
2021/12/18 06:25:52;;;;;;;39.92;29.45;;;12.60;92.80;;;;;;5073058;28;20381;-67
2021/12/18 06:28:18;;;;;;;32.00;25.65;;;12.60;92.70;;;;;;5073112;28;20493;-67
2021/12/18 06:30:43;;;;;;;34.22;24.10;;;12.60;92.80;;;;;;5073201;28;20021;-67
2021/12/18 06:33:09;;;;;;;35.10;25.90;;;12.60;92.90;;;;;;5073250;28;20025;-67
2021/12/18 06:35:35;;;;;;;36.35;26.88;;;12.50;93.00;;;;;;5073055;28;20421;-67
2021/12/18 06:38:00;;;;;;;38.38;28.30;;;12.50;93.10;;;;;;5073168;28;20036;-67
2021/12/18 06:40:26;;;;;;;37.25;27.33;;;12.50;93.10;;;;;;5072661;28;20462;-67
2021/12/18 06:42:52;;;;;;;35.55;25.90;;;12.50;93.10;;;;;;5073065;28;20070;-67
2021/12/18 06:45:17;;;;;;;30.73;22.80;;;12.50;93.10;;;;;;5072940;28;20028;-68
2021/12/18 06:47:43;;;;;;;39.17;26.40;;;12.50;93.20;;;;;;5073016;28;20393;-67
2021/12/18 06:50:09;;;;;;;35.13;24.77;;;12.40;93.20;;;;;;5073002;28;20025;-67
2021/12/18 06:52:34;;;;;;;32.92;24.48;;;12.40;93.20;;;;;;5073371;28;20024;-68
2021/12/18 06:55:00;;;;;;;31.02;23.02;;;12.40;93.30;;;;;;5072687;28;20374;-67
2021/12/18 06:57:26;;;;;;;31.23;22.52;;;12.40;93.40;;;;;;5072826;28;20094;-68
2021/12/18 06:59:52;;;;;;;30.13;22.30;;;12.50;93.30;;;;;;5072673;28;20107;-67
2021/12/18 07:02:18;;;;;;;33.00;24.10;;;12.60;93.20;;;;;;5072653;28;20027;-68
2021/12/18 07:04:44;;;;;;;35.22;26.45;;;12.50;93.30;;;;;;5072971;28;20024;-68
2021/12/18 07:07:10;;;;;;;37.25;27.83;;;12.50;93.30;;;;;;5072831;28;20025;-66
2021/12/18 07:09:35;;;;;;;40.45;29.50;;;12.50;93.40;;;;;;5072212;28;20020;-67
2021/12/18 07:12:01;;;;;;;41.38;28.73;;;12.50;93.30;;;;;;5072664;28;20033;-67
2021/12/18 07:14:27;;;;;;;49.28;30.60;;;12.40;93.40;;;;;;5072624;28;20028;-68
2021/12/18 07:16:53;;;;;;;46.30;29.98;;;12.50;93.40;;;;;;5072698;28;20024;-68
2021/12/18 07:19:18;;;;;;;50.03;31.52;;;12.50;93.30;;;;;;5072691;28;20033;-67
2021/12/18 07:21:44;;;;;;;43.83;29.90;;;12.50;93.30;;;;;;5072480;28;20027;-67
2021/12/18 07:24:09;;;;;;;39.08;27.08;;;12.50;93.30;;;;;;5072178;28;20037;-67
2021/12/18 07:26:35;;;;;;;32.90;24.05;;;12.50;93.40;;;;;;5074572;28;20099;-67
2021/12/18 07:29:00;;;;;;;31.77;23.40;;;12.50;93.40;;;;;;5076555;28;20090;-67
2021/12/18 07:31:27;;;;;;;31.63;22.50;;;12.50;93.40;;;;;;5076244;28;20024;-67
2021/12/18 07:33:53;;;;;;;31.55;22.58;;;12.60;93.40;;;;;;5076598;28;20040;-68
2021/12/18 07:36:18;;;;;;;29.25;20.98;;;12.50;93.40;;;;;;5076346;28;20024;-67
2021/12/18 07:38:44;;;;;;;30.98;21.23;;;12.50;93.50;;;;;;5076184;28;20401;-67
2021/12/18 07:41:10;;;;;;;30.60;22.27;;;12.50;93.60;;;;;;5076184;28;20079;-66
2021/12/18 07:43:36;;;;;;;30.08;21.15;;;12.50;93.50;;;;;;5079013;28;20044;-66
2021/12/18 07:46:03;;;;;;;29.13;21.85;;;12.60;93.50;;;;;;5082466;28;20039;-66
2021/12/18 07:48:29;;;;;;;35.15;24.27;;;12.50;93.50;;;;;;5096269;28;20462;-67
2021/12/18 07:50:54;;;;;;;33.03;22.17;;;12.50;93.50;;;;;;5091412;28;20034;-67
2021/12/18 07:53:21;;;;;;;33.60;22.73;;;12.60;93.80;;;;;;5075239;28;20070;-67
2021/12/18 07:55:47;;;;;;;37.28;24.25;;;12.60;93.50;;;;;;5083083;28;20031;-67
2021/12/18 07:58:12;;;;;;;33.92;23.00;;;12.60;93.50;;;;;;5090715;28;20032;-66
2021/12/18 08:00:39;;;;;;;35.78;22.63;;;12.50;93.60;;;;;;5085001;28;20027;-66
2021/12/18 08:03:04;;;;;;;32.03;21.95;;;12.60;93.60;;;;;;5096137;28;20055;-67
2021/12/18 08:05:30;;;;;;;36.38;23.13;;;12.50;93.70;;;;;;5079532;28;20423;-66
2021/12/18 08:07:55;;;;;;;35.35;22.90;;;12.60;93.70;;;;;;5075554;28;20082;-67
2021/12/18 08:10:21;;;;;;;29.73;20.75;;;12.60;93.60;;;;;;5085849;28;20446;-66
2021/12/18 08:12:47;;;;;;;31.63;21.75;;;12.60;93.70;;;;;;5086608;28;20536;-67
2021/12/18 08:15:12;;;;;;;37.15;24.00;;;12.70;93.60;;;;;;5074299;28;20436;-66
2021/12/18 08:17:38;;;;;;;37.00;23.38;;;12.60;93.70;;;;;;5088688;28;20428;-67
2021/12/18 08:20:05;;;;;;;34.72;23.50;;;12.70;93.60;;;;;;5095763;28;20042;-66
2021/12/18 08:22:31;;;;;;;36.42;23.92;;;12.70;93.60;;;;;;5095217;28;20025;-68
2021/12/18 08:24:56;;;;;;;32.92;22.42;;;12.70;93.60;;;;;;5094171;28;20089;-67
2021/12/18 08:27:22;;;;;;;31.60;21.08;;;12.70;93.50;;;;;;5092199;28;20488;-65
2021/12/18 08:29:47;;;;;;;34.42;22.02;;;12.90;93.40;;;;;;5090301;28;20470;-68
2021/12/18 08:32:13;;;;;;;31.90;22.10;;;12.70;93.40;;;;;;5086177;28;20090;-63
2021/12/18 08:34:39;;;;;;;31.67;21.05;;;12.60;93.60;;;;;;5094109;28;20021;-67
2021/12/18 08:37:05;;;;;;;31.67;21.08;;;12.60;93.60;;;;;;5079835;28;20047;-64
2021/12/18 08:39:30;;;;;;;32.20;21.52;;;12.50;94.00;;;;;;5075395;28;20021;-67
2021/12/18 08:41:58;;;;;;;34.72;21.55;;;12.60;93.80;;;;;;5088601;28;20500;-67
2021/12/18 08:44:24;;;;;;;33.75;21.05;;;12.50;93.80;;;;;;5092466;28;20495;-67
2021/12/18 08:46:50;;;;;;;32.97;20.35;;;12.60;93.90;;;;;;5092411;28;20099;-64
2021/12/18 08:49:16;;;;;;;30.92;20.50;;;12.60;93.90;;;;;;5102343;28;20055;-64
2021/12/18 08:51:42;;;;;;;29.85;19.75;;;12.60;93.80;;;;;;5081282;28;20063;-60
2021/12/18 08:54:07;;;;;;;30.30;19.73;;;12.60;93.90;;;;;;5079245;28;20064;-65
2021/12/18 08:56:33;;;;;;;28.48;19.70;;;12.50;94.00;;;;;;5073195;28;20028;-61
2021/12/18 08:59:00;;;;;;;30.10;20.55;;;12.50;94.00;;;;;;5072946;28;20058;-66
2021/12/18 09:01:29;;;;;;;27.85;19.55;;;12.50;94.00;;;;;;5072842;28;20090;-61
2021/12/18 09:03:56;;;;;;;31.67;21.13;;;12.50;94.00;;;;;;5088479;28;20032;-62
2021/12/18 09:06:22;;;;;;;31.73;20.25;;;12.50;94.20;;;;;;5087145;28;20631;-64
2021/12/18 09:08:48;;;;;;;34.20;21.35;;;12.50;94.30;;;;;;5086582;28;20023;-66
2021/12/18 09:11:14;;;;;;;30.05;20.52;;;12.50;94.60;;;;;;5087592;28;20104;-68
2021/12/18 09:13:39;;;;;;;31.85;19.40;;;12.50;94.20;;;;;;5081398;28;20063;-66
2021/12/18 09:16:06;;;;;;;31.30;20.85;;;12.60;94.10;;;;;;5093491;28;20036;-67
2021/12/18 09:18:31;;;;;;;26.23;19.05;;;12.50;94.20;;;;;;5082070;28;20592;-68
2021/12/18 09:20:57;;;;;;;33.35;20.45;;;12.40;94.50;;;;;;5077825;28;20108;-60
2021/12/18 09:23:23;;;;;;;29.83;19.67;;;12.50;94.70;;;;;;5081672;28;20032;-66
2021/12/18 09:25:49;;;;;;;28.05;19.45;;;12.50;94.70;;;;;;5092261;28;20032;-66
2021/12/18 09:28:15;;;;;;;26.90;18.15;;;12.60;94.20;;;;;;5089289;28;20082;-67
2021/12/18 09:30:41;;;;;;;24.50;16.83;;;12.60;94.20;;;;;;5076155;28;20020;-62
2021/12/18 09:33:11;;;;;;;26.08;17.27;;;12.60;94.30;;;;;;5075368;28;20028;-66
2021/12/18 09:35:37;;;;;;;27.95;18.23;;;12.60;94.40;;;;;;5077007;28;20115;-67
2021/12/18 09:38:03;;;;;;;26.63;16.85;;;12.60;94.40;;;;;;5075371;28;20130;-68
2021/12/18 09:40:29;;;;;;;24.48;16.80;;;12.60;94.30;;;;;;5076742;28;20096;-66
2021/12/18 09:42:55;;;;;;;23.73;16.13;;;12.70;94.40;;;;;;5076113;28;20036;-63
2021/12/18 09:45:22;;;;;;;27.67;18.77;;;12.70;94.20;;;;;;5077497;28;20036;-65
2021/12/18 09:47:48;;;;;;;30.42;18.38;;;12.70;94.30;;;;;;5077782;28;20029;-66
2021/12/18 09:50:15;;;;;;;30.55;19.08;;;12.70;94.00;;;;;;5072357;28;20044;-67
2021/12/18 09:52:41;;;;;;;27.75;17.80;;;12.70;94.00;;;;;;5081185;28;20068;-66
2021/12/18 09:55:08;;;;;;;28.15;17.98;;;12.70;94.00;;;;;;5085682;28;20045;-65
2021/12/18 09:57:34;;;;;;;28.50;19.05;;;12.70;94.20;;;;;;5082987;28;20465;-66
2021/12/18 10:00:00;;;;;;;36.80;20.58;;;12.70;93.90;;;;;;5087566;28;20380;-64
2021/12/18 10:02:26;;;;;;;28.63;18.27;;;12.70;94.40;;;;;;5101597;28;20016;-66
2021/12/18 10:04:52;;;;;;;28.88;17.83;;;13.30;94.10;;;;;;5089031;28;20498;-65
2021/12/18 10:07:23;;;;;;;33.67;20.05;;;13.70;92.90;;;;;;5092300;28;20051;-66
2021/12/18 10:09:51;;;;;;;28.90;17.90;;;14.10;92.20;;;;;;5083347;28;20012;-64
2021/12/18 10:12:32;;;;;;;26.58;16.83;;;14.30;91.80;;;;;;5090561;28;20035;-65
2021/12/18 10:15:01;;;;;;;26.35;17.17;;;14.40;91.40;;;;;;5097123;28;20035;-64
2021/12/18 10:17:44;;;;;;;24.42;17.55;;;14.60;91.20;;;;;;5090311;28;20059;-66
2021/12/18 10:20:10;;;;;;;25.20;16.23;;;14.80;90.90;;;;;;5089864;28;20035;-64
2021/12/18 10:22:48;;;;;;;32.78;27.02;;;14.80;90.70;;;;;;5085998;28;20020;-64
2021/12/18 10:25:18;;;;;;;26.58;17.63;;;14.90;90.50;;;;;;5071128;28;20024;-64
2021/12/18 10:27:58;;;;;;;25.30;15.80;;;14.90;90.50;;;;;;5072737;28;20485;-63
2021/12/18 10:30:24;;;;;;;24.05;16.60;;;15.00;90.30;;;;;;5072468;28;20473;-62
2021/12/18 10:33:09;;;;;;;25.75;17.00;;;15.00;90.10;;;;;;5070392;28;20036;-64
2021/12/18 10:35:43;;;;;;;23.30;16.85;;;15.00;90.10;;;;;;5071920;28;20478;-62
2021/12/18 10:38:29;;;;;;;23.13;16.98;;;15.00;89.90;;;;;;5072226;28;20032;-64
2021/12/18 10:40:55;;;;;;;25.77;17.75;;;15.00;89.80;;;;;;5072030;28;20336;-64
2021/12/18 10:43:21;;;;;;;27.02;19.98;;;15.10;89.80;;;;;;5076381;28;20600;-61
2021/12/18 10:45:46;;;;;;;27.75;19.85;;;14.90;90.00;;;;;;5090764;28;20028;-62
2021/12/18 10:48:16;;;;;;;28.92;18.60;;;14.60;90.60;;;;;;5091763;28;20427;-63
2021/12/18 10:50:53;;;;;;;26.02;17.45;;;14.40;91.00;;;;;;5073673;28;20413;-65
2021/12/18 10:53:25;;;;;;;27.98;18.13;;;14.30;91.40;;;;;;5092634;28;20453;-65
2021/12/18 10:55:57;;;;;;;30.30;18.55;;;14.20;91.40;;;;;;5091506;28;20107;-62
2021/12/18 10:58:35;;;;;;;30.77;19.55;;;14.10;91.40;;;;;;5092492;28;20024;-61
2021/12/18 11:01:12;;;;;;;29.10;18.92;;;14.10;91.60;;;;;;5092401;28;20035;-65
2021/12/18 11:03:45;;;;;;;36.90;19.48;;;14.00;91.80;;;;;;5096124;28;20024;-64
2021/12/18 11:06:19;;;;;;;28.45;19.25;;;14.00;91.70;;;;;;5096068;28;20024;-62
2021/12/18 11:08:56;;;;;;;28.98;19.15;;;14.00;91.70;;;;;;5096290;28;20028;-64
2021/12/18 11:14:07;;;;;;;32.97;19.58;;;13.90;91.90;;;;;;5089358;28;20093;-65
2021/12/18 11:16:36;;;;;;;28.67;18.13;;;13.90;92.00;;;;;;5095941;28;20055;-61
2021/12/18 11:19:25;;;;;;;30.27;19.58;;;13.90;91.90;;;;;;5096176;28;20403;-65
2021/12/18 11:21:53;;;;;;;28.10;18.08;;;13.90;92.00;;;;;;5095191;28;20028;-66
2021/12/18 11:24:22;;;;;;;23.50;16.88;;;13.90;92.10;;;;;;5096006;28;20024;-65
2021/12/18 11:27:06;;;;;;;27.77;16.80;;;14.00;91.80;;;;;;5090440;28;20024;-63
2021/12/18 11:29:40;;;;;;;29.52;17.00;;;13.90;91.90;;;;;;5081903;28;20035;-64
2021/12/18 11:32:15;;;;;;;25.00;16.52;;;13.90;92.10;;;;;;5085487;28;20038;-62
2021/12/18 11:34:43;;;;;;;26.38;16.30;;;13.90;92.00;;;;;;5087245;28;20023;-62
2021/12/18 11:37:12;;;;;;;27.85;17.95;;;13.90;92.30;;;;;;5095415;28;20035;-64
2021/12/18 11:39:39;;;;;;;26.17;16.17;;;13.90;92.20;;;;;;5096035;28;20075;-64
2021/12/18 11:42:06;;;;;;;26.25;15.43;;;14.00;92.00;;;;;;5095676;28;20016;-64
2021/12/18 11:44:35;;;;;;;25.48;15.73;;;14.00;92.10;;;;;;5092009;28;20114;-63
2021/12/18 11:47:24;;;;;;;23.52;16.40;;;14.00;92.20;;;;;;5090713;28;20937;-64
2021/12/18 11:49:50;;;;;;;22.75;17.17;;;14.10;91.90;;;;;;5080986;28;20024;-61
2021/12/18 11:52:16;;;;;;;25.15;17.27;;;14.00;91.90;;;;;;5075948;28;20743;-64
2021/12/18 11:54:58;;;;;;;23.05;16.92;;;13.90;92.20;;;;;;5077027;28;20088;-64
2021/12/18 11:57:45;;;;;;;25.38;17.15;;;13.90;92.10;;;;;;5090343;28;20111;-65
2021/12/18 12:00:22;;;;;;;27.98;18.02;;;13.90;92.10;;;;;;5087455;28;20039;-64
2021/12/18 12:02:53;;;;;;;26.00;17.33;;;13.90;92.00;;;;;;5083657;28;20028;-65
2021/12/18 12:05:31;;;;;;;26.93;15.50;;;13.90;92.20;;;;;;5079109;28;20016;-61
2021/12/18 12:08:20;;;;;;;25.92;15.90;;;13.90;92.30;;;;;;5088760;28;20024;-64
2021/12/18 12:11:15;;;;;;;21.83;13.70;;;14.00;92.20;;;;;;5088259;28;20026;-59
2021/12/18 12:14:02;;;;;;;20.10;14.80;;;14.10;92.30;;;;;;5078150;28;20036;-59
2021/12/18 12:16:42;;;;;;;33.33;22.67;;;14.00;92.50;;;;;;5079924;28;20051;-62
2021/12/18 12:19:24;;;;;;;28.73;19.65;;;14.10;93.00;;;;;;5080615;28;20040;-61
2021/12/18 12:21:57;;;;;;;23.73;16.58;;;14.00;92.70;;;;;;5076478;28;20021;-61
2021/12/18 12:24:31;;;;;;;21.85;15.05;;;14.00;92.20;;;;;;5081250;28;20120;-60
2021/12/18 12:27:29;;;;;;;20.25;13.38;;;14.00;92.30;;;;;;5081016;28;20020;-64
2021/12/18 12:29:56;;;;;;;20.70;12.32;;;14.10;92.10;;;;;;5079788;28;20025;-63
2021/12/18 12:32:22;;;;;;;21.48;12.05;;;14.10;92.10;;;;;;5079653;28;20085;-60
2021/12/18 12:35:01;;;;;;;18.38;11.98;;;14.10;92.10;;;;;;5082730;28;20469;-64
2021/12/18 12:37:26;;;;;;;25.25;14.07;;;14.10;91.80;;;;;;5089624;28;20020;-63
2021/12/18 12:39:59;;;;;;;24.38;14.15;;;14.00;91.80;;;;;;5078417;28;20063;-63
2021/12/18 12:42:25;;;;;;;;;;;14.00;91.80;;;;;;5084011;28;20466;-61
2021/12/18 12:44:59;;;;;;;21.88;14.45;;;14.00;92.00;;;;;;5082751;28;19912;-63
2021/12/18 12:47:27;;;;;;;25.20;16.33;;;13.90;91.90;;;;;;5076330;28;20024;-64
2021/12/18 12:50:11;;;;;;;31.40;18.25;;;14.00;92.10;;;;;;5086681;28;20059;-63
2021/12/18 12:52:52;;;;;;;28.23;18.92;;;14.00;91.20;;;;;;5085310;28;20040;-64
2021/12/18 12:55:19;;;;;;;32.22;18.40;;;13.90;91.40;;;;;;5082801;28;20067;-64
2021/12/18 12:58:02;;;;;;;34.38;19.33;;;14.00;91.60;;;;;;5086283;28;20299;-64
2021/12/18 13:00:27;;;;;;;29.55;19.00;;;14.00;91.50;;;;;;5084583;28;20107;-64
2021/12/18 13:02:55;;;;;;;31.92;19.98;;;13.90;91.60;;;;;;5087031;28;20130;-64
2021/12/18 13:05:22;;;;;;;42.00;28.75;;;14.00;91.60;;;;;;5087953;28;20016;-64
2021/12/18 13:07:57;;;;;;;39.85;25.98;;;14.10;91.40;;;;;;5092897;28;20035;-64
2021/12/18 13:10:31;;;;;;;48.22;30.65;;;14.10;91.40;;;;;;5092976;28;20032;-63
2021/12/18 13:13:05;;;;;;;50.28;31.95;;;14.20;91.20;;;;;;5093061;28;20024;-64
2021/12/18 13:15:47;;;;;;;55.10;34.50;;;14.20;91.20;;;;;;5093558;28;20024;-64
2021/12/18 13:18:13;;;;;;;57.42;35.00;;;14.20;91.00;;;;;;5079087;28;20035;-64
2021/12/18 13:20:44;;;;;;;60.38;38.25;;;14.20;91.10;;;;;;5085175;28;20028;-64
2021/12/18 13:23:17;;;;;;;48.75;34.00;;;14.30;90.90;;;;;;5092482;28;20026;-64